Time;durP1;ratioP1;P1;durP2;ratioP2;P2;SDS_P1;SDS_P2;PMS_P1;PMS_P2;Temp;Humidity;BMP_temperature;BMP_pressure;BME280_temperature;BME280_humidity;BME280_pressure;Samples;Min_cycle;Max_cycle;Signal;HPM_P1;HPM_P2
2023/02/17 00:00:54;;;;;;;5.57;4.97;;;;;;;17.50;44.17;97883.44;4923382;29;20204;-92
2023/02/17 00:03:21;;;;;;;5.30;4.80;;;;;;;17.81;44.37;97973.13;4913701;29;20244;-92
2023/02/17 00:05:50;;;;;;;5.37;4.87;;;;;;;18.64;44.19;98074.03;4916439;29;20251;-92
2023/02/17 00:08:16;;;;;;;5.33;4.93;;;;;;;19.55;44.22;98230.63;4936410;29;20214;-92
2023/02/17 00:10:46;;;;;;;5.53;5.03;;;;;;;18.44;44.34;98028.94;4940757;29;20196;-93
2023/02/17 00:13:13;;;;;;;5.53;5.03;;;;;;;19.14;43.87;98149.59;4954080;28;20315;-91
2023/02/17 00:15:39;;;;;;;5.53;5.03;;;;;;;18.60;43.83;98052.69;4945100;29;20647;-92
2023/02/17 00:18:06;;;;;;;5.43;4.93;;;;;;;19.39;44.32;98192.47;4937143;29;20208;-93
2023/02/17 00:20:33;;;;;;;5.00;4.50;;;;;;;17.97;44.38;97950.25;4951495;29;20205;-92
2023/02/17 00:23:00;;;;;;;5.63;5.13;;;;;;;17.98;44.26;97951.97;4927168;29;20224;-92
2023/02/17 00:25:26;;;;;;;5.53;5.03;;;;;;;19.44;44.01;98199.50;4934890;29;20224;-92
2023/02/17 00:27:53;;;;;;;5.40;4.90;;;;;;;18.27;44.49;98015.34;4927755;29;20197;-92
2023/02/17 00:30:20;;;;;;;5.33;4.83;;;;;;;18.17;44.55;97975.88;4915670;29;20293;-92
2023/02/17 00:32:46;;;;;;;5.00;4.60;;;;;;;16.61;44.26;97706.13;4947874;28;20307;-92
2023/02/17 00:35:13;;;;;;;5.53;5.03;;;;;;;17.06;44.30;97786.31;4936420;29;20216;-92
2023/02/17 00:37:44;;;;;;;4.60;4.20;;;;;;;17.16;44.36;97839.28;4939742;29;20204;-92
2023/02/17 00:40:11;;;;;;;5.23;4.73;;;;;;;16.08;44.35;97609.50;4917517;29;20208;-92
2023/02/17 00:42:39;;;;;;;5.50;5.00;;;;;;;16.40;44.19;97717.69;4943570;28;20607;-92
2023/02/17 00:45:07;;;;;;;5.50;4.90;;;;;;;16.52;44.20;97727.63;4938232;29;20224;-92
2023/02/17 00:47:34;;;;;;;5.17;4.77;;;;;;;16.33;44.52;97695.34;4929403;29;20294;-93
2023/02/17 00:50:00;;;;;;;5.47;4.97;;;;;;;18.66;44.74;98059.72;4908433;29;20264;-92
2023/02/17 00:52:27;;;;;;;4.77;4.37;;;;;;;18.84;44.42;98089.53;4935929;29;20220;-93
2023/02/17 00:54:54;;;;;;;5.17;4.67;;;;;;;15.54;44.11;97596.47;4949737;29;20495;-92
2023/02/17 00:57:20;;;;;;;4.77;4.37;;;;;;;17.74;44.37;97917.72;4935897;29;20211;-93
2023/02/17 00:59:47;;;;;;;5.40;4.90;;;;;;;18.95;44.43;98120.59;4921616;29;20659;-92
2023/02/17 01:02:14;;;;;;;5.20;4.70;;;;;;;16.10;44.39;97645.09;4929032;29;20268;-91
2023/02/17 01:04:43;;;;;;;5.70;5.10;;;;;;;16.29;44.01;97694.28;4929913;29;20256;-91
2023/02/17 01:07:11;;;;;;;4.80;4.40;;;;;;;17.23;44.48;97865.06;4937631;29;20205;-92
2023/02/17 01:09:38;;;;;;;4.97;4.57;;;;;;;15.35;44.56;97583.59;4930827;29;20223;-92
2023/02/17 01:12:09;;;;;;;5.00;4.50;;;;;;;16.33;44.33;97672.50;4907375;29;20221;-92
2023/02/17 01:14:39;;;;;;;4.70;4.30;;;;;;;18.61;44.11;98081.53;4914936;29;20726;-90
2023/02/17 01:17:06;;;;;;;5.20;4.70;;;;;;;18.55;44.05;98119.41;4921624;29;20208;-90
2023/02/17 01:19:33;;;;;;;4.97;4.57;;;;;;;15.02;44.22;97454.34;4937281;29;20295;-90
2023/02/17 01:22:00;;;;;;;5.37;4.87;;;;;;;14.45;44.19;97341.69;4928249;29;20313;-91
2023/02/17 01:24:26;;;;;;;5.27;4.77;;;;;;;17.77;44.05;97913.63;4942706;29;20212;-91
2023/02/17 01:26:53;;;;;;;5.00;4.60;;;;;;;15.04;44.71;97462.91;4927162;29;20201;-91
2023/02/17 01:29:20;;;;;;;5.20;4.70;;;;;;;17.07;44.11;97790.56;4928155;29;20673;-91
2023/02/17 01:31:56;;;;;;;4.83;4.43;;;;;;;16.36;44.09;97698.91;4921653;29;20230;-92
2023/02/17 01:34:23;;;;;;;5.30;4.80;;;;;;;14.60;44.14;97354.31;4945624;29;20244;-90
2023/02/17 01:36:49;;;;;;;5.33;4.90;;;;;;;19.06;44.31;98134.72;4944892;28;20227;-91
2023/02/17 01:39:16;;;;;;;5.10;4.70;;;;;;;18.73;44.18;98125.41;4936554;29;20216;-91
2023/02/17 05:22:58;;;;;;;5.23;4.73;;;;;;;18.30;43.91;97861.97;5290310;23;20480;-91
2023/02/17 05:25:25;;;;;;;5.00;4.60;;;;;;;19.46;43.87;98062.81;4979003;28;20231;-90
2023/02/17 05:27:51;;;;;;;4.53;4.13;;;;;;;18.37;43.86;97886.91;4957596;28;20228;-92
2023/02/17 05:30:18;;;;;;;4.67;4.27;;;;;;;18.03;44.36;97815.78;4926984;28;20189;-92
2023/02/17 05:32:45;;;;;;;5.70;5.20;;;;;;;18.55;43.98;97906.50;4930883;28;20236;-93
2023/02/17 05:35:13;;;;;;;5.03;4.60;;;;;;;19.43;43.92;98080.53;4963851;28;20204;-93
2023/02/17 05:37:40;;;;;;;4.93;4.53;;;;;;;17.30;43.96;97711.34;4920941;28;20181;-94
2023/02/17 05:40:07;;;;;;;4.30;3.90;;;;;;;18.73;43.94;97963.34;4947341;28;20224;-92
2023/02/17 05:42:34;;;;;;;4.53;4.13;;;;;;;18.79;44.06;97955.13;4959676;28;20265;-93
2023/02/17 05:45:00;;;;;;;4.83;4.43;;;;;;;17.80;43.95;97780.75;4942563;28;20240;-93
2023/02/17 05:47:27;;;;;;;4.50;4.10;;;;;;;18.50;44.19;97909.63;5054232;23;20246;-92
2023/02/17 05:49:54;;;;;;;4.80;4.30;;;;;;;19.10;44.22;98022.84;4999865;28;20187;-92
2023/02/17 05:52:21;;;;;;;4.13;3.80;;;;;;;19.05;44.04;98006.50;4965867;28;20213;-93
2023/02/17 05:54:47;;;;;;;4.60;4.20;;;;;;;18.68;44.15;97967.34;4988926;28;20188;-94
2023/02/17 05:57:14;;;;;;;10.53;6.27;;;;;;;19.45;44.12;98078.91;4981629;28;20196;-94
2023/02/17 05:59:41;;;;;;;17.90;11.73;;;;;;;17.89;43.80;97814.22;4962375;28;20197;-92
2023/02/17 06:02:07;;;;;;;24.70;17.33;;;;;;;19.69;42.87;98136.13;4989635;28;20232;-92
2023/02/17 06:04:34;;;;;;;25.13;17.23;;;;;;;19.95;42.73;98173.00;4976313;28;20215;-93
2023/02/17 06:07:01;;;;;;;26.43;17.87;;;;;;;18.77;42.58;97995.78;4988623;28;20267;-93
2023/02/17 06:09:28;;;;;;;26.93;18.00;;;;;;;18.57;42.16;97942.19;4986184;28;20206;-92
2023/02/17 06:11:55;;;;;;;25.33;18.07;;;;;;;19.49;41.63;98092.66;4985090;28;20275;-90
2023/02/17 06:14:21;;;;;;;23.80;16.73;;;;;;;18.51;42.02;97916.44;4987765;28;20191;-91
2023/02/17 06:16:48;;;;;;;18.40;13.67;;;;;;;18.41;42.39;97904.97;4985750;28;20208;-92
2023/02/17 06:19:14;;;;;;;18.97;13.30;;;;;;;18.48;42.42;97924.81;4980078;28;20251;-90
2023/02/17 06:21:41;;;;;;;16.53;12.80;;;;;;;19.05;42.66;98015.78;4985118;28;20191;-91
2023/02/17 06:24:08;;;;;;;20.77;13.53;;;;;;;19.05;42.64;98009.03;4993489;28;20187;-93
2023/02/17 06:26:35;;;;;;;18.27;12.87;;;;;;;18.91;42.73;97983.69;4970601;28;20255;-93
2023/02/17 06:29:01;;;;;;;15.00;12.23;;;;;;;18.26;42.80;97893.16;4986263;28;20203;-92
2023/02/17 06:31:28;;;;;;;16.17;12.13;;;;;;;18.59;43.05;97923.63;4995901;28;20202;-93
2023/02/17 06:33:55;;;;;;;17.33;12.43;;;;;;;19.47;42.55;98072.19;4995703;28;20198;-92
2023/02/17 06:36:22;;;;;;;17.60;11.93;;;;;;;18.66;42.78;97930.78;4987921;28;20199;-92
2023/02/17 06:38:48;;;;;;;14.77;11.23;;;;;;;18.62;42.73;97933.97;4973029;28;20212;-92
2023/02/17 06:41:15;;;;;;;15.97;12.27;;;;;;;19.08;42.90;97995.56;4974224;28;20215;-91
2023/02/17 06:43:42;;;;;;;13.90;10.67;;;;;;;19.02;42.82;97992.72;4989801;28;20214;-93
2023/02/17 06:54:14;;;;;;;13.67;10.23;;;;;;;19.13;41.82;98017.03;5414423;23;20265;-94
2023/02/17 06:56:41;;;;;;;12.10;9.50;;;;;;;18.02;41.85;97841.97;4958324;28;20204;-93
2023/02/17 06:59:07;;;;;;;13.23;9.23;;;;;;;18.98;40.91;97993.41;4941155;28;20205;-93
2023/02/17 07:01:34;;;;;;;10.50;8.67;;;;;;;17.32;40.59;97702.13;4944900;28;20251;-94
2023/02/17 07:04:01;;;;;;;14.37;8.43;;;;;;;19.06;40.55;98012.44;4943484;28;20196;-93
2023/02/17 10:49:00;;;;;;;3.67;3.30;;;;;;;17.13;43.73;97700.34;3325048;26;20204;-93
2023/02/17 10:51:28;;;;;;;4.33;3.70;;;;;;;17.98;43.31;97822.28;4984472;28;20183;-94
2023/02/17 10:54:02;;;;;;;6.73;4.13;;;;;;;18.86;43.28;97975.84;4968562;28;20212;-94
2023/02/17 10:56:40;;;;;;;4.87;4.03;;;;;;;18.30;43.71;97874.69;4971995;28;20222;-92
2023/02/17 10:59:21;;;;;;;6.23;3.60;;;;;;;18.89;43.46;97972.59;4987156;28;20199;-93
2023/02/17 11:15:43;;;;;;;7.90;3.63;;;;;;;20.02;43.04;98158.06;5265807;23;20211;-93
2023/02/17 11:18:17;;;;;;;5.07;3.67;;;;;;;18.29;43.20;97862.78;4963398;28;20183;-93
2023/02/17 11:20:44;;;;;;;4.83;3.90;;;;;;;17.89;43.33;97782.03;4960671;28;20215;-93
2023/02/17 11:23:13;;;;;;;6.53;3.73;;;;;;;20.04;43.38;98147.06;4960253;29;20203;-93
2023/02/17 11:25:41;;;;;;;3.57;3.20;;;;;;;18.01;43.63;97797.00;4975987;28;20215;-93
2023/02/17 11:28:12;;;;;;;3.73;3.23;;;;;;;19.08;43.52;98005.75;4989852;28;20193;-92
2023/02/17 11:30:47;;;;;;;5.93;3.43;;;;;;;19.48;43.25;98061.19;4973788;29;20192;-94
2023/02/17 11:33:16;;;;;;;4.77;3.67;;;;;;;18.40;43.52;97884.53;4967660;29;20189;-93
2023/02/17 11:35:49;;;;;;;3.83;3.43;;;;;;;19.52;43.46;98047.81;4943110;28;20276;-93
2023/02/17 11:38:18;;;;;;;5.00;3.53;;;;;;;18.74;43.33;97908.22;4969263;28;20236;-93
2023/02/17 11:40:59;;;;;;;3.70;3.30;;;;;;;19.46;43.47;98036.44;4957988;28;20188;-93
2023/02/17 11:43:30;;;;;;;4.77;3.30;;;;;;;20.07;43.32;98144.66;4987640;28;20196;-93
2023/02/17 11:46:06;;;;;;;3.40;3.03;;;;;;;19.66;43.35;98069.66;4941051;28;20232;-93
2023/02/17 11:48:36;;;;;;;3.20;2.77;;;;;;;20.07;43.41;98126.78;4954819;28;20318;-93
2023/02/17 11:51:15;;;;;;;4.30;3.00;;;;;;;18.68;43.51;97872.31;4989539;28;20283;-93
2023/02/17 11:54:13;;;;;;;4.93;3.33;;;;;;;20.07;43.32;98103.81;4954944;28;20251;-93
2023/02/17 11:56:42;;;;;;;6.00;2.83;;;;;;;19.73;43.45;98074.28;4990362;28;20196;-93
2023/02/17 11:59:15;;;;;;;6.93;3.73;;;;;;;20.08;43.30;98114.09;4952947;28;20192;-94
2023/02/17 14:51:47;;;;;;;3.03;2.73;;;;;;;19.14;43.52;97914.31;5285627;23;20234;-94
2023/02/17 14:54:16;;;;;;;3.23;2.80;;;;;;;17.24;43.38;97569.69;4950758;28;20276;-94
2023/02/17 14:56:54;;;;;;;3.27;2.60;;;;;;;18.34;43.51;97765.50;4980878;28;20183;-94
2023/02/17 14:59:20;;;;;;;3.77;2.90;;;;;;;18.98;43.83;97872.00;4963947;28;20191;-93
2023/02/17 15:01:47;;;;;;;3.40;2.50;;;;;;;18.72;44.04;97838.53;4966432;28;20227;-92
2023/02/17 15:04:13;;;;;;;5.37;3.00;;;;;;;18.82;43.40;97840.69;4975586;28;20187;-93
2023/02/17 15:06:42;;;;;;;3.80;2.67;;;;;;;18.23;43.55;97750.56;4979480;28;20275;-93
2023/02/17 15:09:14;;;;;;;3.70;3.00;;;;;;;20.13;43.82;98060.75;4944779;28;20193;-92
2023/02/17 15:11:44;;;;;;;3.90;2.70;;;;;;;19.24;43.70;97914.78;4957984;28;20271;-92
2023/02/17 15:14:16;;;;;;;3.00;2.50;;;;;;;18.72;43.49;97830.91;4949155;28;20199;-93
2023/02/17 15:16:43;;;;;;;3.20;2.63;;;;;;;18.44;43.46;97769.38;4967786;28;20218;-92
2023/02/17 15:19:10;;;;;;;3.47;2.57;;;;;;;18.23;43.69;97767.56;4994292;28;20234;-94
2023/02/17 15:21:38;;;;;;;3.57;2.60;;;;;;;18.37;43.90;97777.47;4948215;28;20184;-94
2023/02/17 15:24:16;;;;;;;6.17;3.00;;;;;;;18.81;43.59;97844.03;4963590;28;20226;-94
2023/02/17 15:26:43;;;;;;;5.30;2.70;;;;;;;19.72;43.85;98015.53;4976068;28;20231;-93
2023/02/17 15:29:15;;;;;;;4.40;2.90;;;;;;;18.90;44.22;97864.81;4978704;28;20199;-92
2023/02/17 15:31:41;;;;;;;9.87;3.20;;;;;;;18.48;44.31;97795.03;4960475;28;20226;-93
2023/02/17 15:34:12;;;;;;;7.23;2.73;;;;;;;19.33;44.41;97938.16;4986211;28;20184;-93
2023/02/17 15:36:39;;;;;;;20.50;3.57;;;;;;;19.88;44.58;98020.50;4969666;28;20188;-93
2023/02/17 15:39:11;;;;;;;15.63;3.53;;;;;;;18.93;44.62;97842.03;4962033;28;20220;-92
2023/02/17 15:41:38;;;;;;;9.53;3.20;;;;;;;19.37;44.90;97921.34;4969273;28;20187;-92
2023/02/17 15:44:06;;;;;;;13.30;3.40;;;;;;;19.38;44.72;97920.53;4958910;28;20251;-95
2023/02/17 15:46:33;;;;;;;6.57;3.13;;;;;;;19.07;44.51;97882.59;4954943;28;21543;-94
2023/02/17 15:49:00;;;;;;;11.33;3.07;;;;;;;19.75;44.96;97985.06;4950898;28;20447;-93
2023/02/17 15:51:28;;;;;;;13.40;3.27;;;;;;;18.36;44.31;97758.81;4968499;28;20187;-94
2023/02/17 15:53:55;;;;;;;10.17;3.60;;;;;;;18.04;44.25;97703.94;4943392;28;20202;-94
2023/02/17 16:25:00;;;;;;;6.27;3.00;;;;;;;18.94;44.17;97859.06;5846737;23;20246;-93
2023/02/17 16:27:27;;;;;;;5.23;2.57;;;;;;;19.26;44.31;97923.38;4965903;28;20212;-94
2023/02/17 16:38:00;;;;;;;7.00;2.60;;;;;;;18.26;44.64;97763.44;5502050;23;20261;-94
2023/02/17 16:40:28;;;;;;;3.43;2.57;;;;;;;17.68;44.27;97686.97;4923971;29;20188;-95
2023/02/17 16:42:55;;;;;;;5.77;2.40;;;;;;;18.41;44.50;97777.72;4934694;29;20195;-95
2023/02/17 16:45:31;;;;;;;8.93;2.63;;;;;;;19.07;44.56;97914.84;4944906;29;20260;-95
2023/02/17 16:47:58;;;;;;;4.70;2.60;;;;;;;20.02;44.81;98078.09;4931969;28;20260;-95
2023/02/17 16:50:30;;;;;;;4.63;2.67;;;;;;;18.57;44.75;97823.44;4943475;29;20188;-95
2023/02/17 16:53:02;;;;;;;7.10;3.23;;;;;;;19.07;45.03;97894.47;4941044;29;20226;-93
2023/02/17 16:55:31;;;;;;;8.13;3.00;;;;;;;19.25;44.84;97957.31;4958222;28;20251;-94
2023/02/17 16:57:57;;;;;;;11.97;2.83;;;;;;;18.41;44.83;97799.78;4937644;28;20193;-95
2023/02/17 17:13:54;;;;;;;5.83;2.70;;;;;;;18.03;44.48;97731.84;5040430;23;20458;-94
2023/02/17 17:16:24;;;;;;;6.07;2.70;;;;;;;17.29;44.51;97620.69;4997523;28;20203;-94
2023/02/17 17:18:50;;;;;;;7.47;2.70;;;;;;;17.45;44.44;97635.88;4985526;28;20191;-94
2023/02/17 17:21:18;;;;;;;7.93;2.83;;;;;;;17.59;44.48;97661.13;4980674;28;20183;-95
2023/02/17 17:23:49;;;;;;;6.77;2.83;;;;;;;18.47;44.62;97785.63;4980410;28;20231;-94
2023/02/17 17:26:28;;;;;;;4.77;2.70;;;;;;;18.46;44.51;97786.44;4961530;28;20227;-93
2023/02/17 17:28:54;;;;;;;8.97;2.83;;;;;;;19.30;44.43;97949.91;4979104;28;20185;-94
2023/02/17 17:31:27;;;;;;;5.53;2.53;;;;;;;18.79;44.87;97861.78;4980589;28;20267;-94
2023/02/17 17:33:56;;;;;;;3.83;2.37;;;;;;;17.37;44.62;97610.09;4981651;28;20222;-94
2023/02/17 17:36:35;;;;;;;5.47;2.73;;;;;;;17.28;44.26;97606.25;4978096;28;20203;-94
2023/02/17 17:39:28;;;;;;;9.07;2.80;;;;;;;18.25;44.46;97772.72;4981292;28;20198;-94
2023/02/17 17:42:08;;;;;;;4.53;2.60;;;;;;;19.52;44.30;97988.28;4982232;28;20211;-93
2023/02/17 17:44:43;;;;;;;4.13;2.90;;;;;;;18.65;44.24;97837.38;4963751;28;20196;-95
2023/02/17 17:47:36;;;;;;;4.30;2.80;;;;;;;18.02;44.28;97752.97;4966103;28;20207;-94
2023/02/17 17:50:27;;;;;;;5.37;2.50;;;;;;;17.78;44.27;97701.00;4983505;28;20204;-94
2023/02/17 17:52:59;;;;;;;3.97;2.20;;;;;;;17.74;44.34;97684.72;4963525;28;20243;-95
2023/02/17 17:55:32;;;;;;;3.93;2.60;;;;;;;20.04;44.45;98084.13;4961671;28;20184;-93
2023/02/17 17:58:01;;;;;;;4.90;2.73;;;;;;;17.40;44.27;97658.50;4965546;28;20252;-94
2023/02/17 18:00:38;;;;;;;3.23;2.10;;;;;;;18.49;44.39;97829.84;4979926;28;20196;-94
2023/02/17 18:03:18;;;;;;;7.27;2.80;;;;;;;18.91;44.34;97909.84;4979071;28;20208;-94
2023/02/17 18:05:54;;;;;;;4.23;2.60;;;;;;;18.11;44.26;97756.81;4963311;28;20188;-94
2023/02/17 18:08:21;;;;;;;5.53;2.50;;;;;;;18.52;44.11;97834.19;4980383;28;20235;-94
2023/02/17 18:10:48;;;;;;;4.17;2.57;;;;;;;18.35;44.10;97792.69;4975287;28;20172;-94
2023/02/17 18:13:15;;;;;;;5.17;2.30;;;;;;;18.54;44.17;97824.97;4996796;28;20215;-95
2023/02/17 18:15:42;;;;;;;5.20;2.50;;;;;;;16.97;44.00;97563.31;4973758;28;20195;-95
2023/02/17 18:18:11;;;;;;;5.60;2.57;;;;;;;18.48;44.27;97819.59;4981712;28;20190;-94
2023/02/17 18:20:37;;;;;;;3.53;2.63;;;;;;;17.78;44.32;97714.56;4994470;28;20184;-94
2023/02/17 18:23:05;;;;;;;4.70;2.40;;;;;;;17.42;44.56;97646.75;4997766;28;20228;-95
2023/02/17 18:25:32;;;;;;;4.23;2.67;;;;;;;18.46;44.78;97819.53;4964540;28;20251;-94
2023/02/17 18:27:59;;;;;;;3.80;2.40;;;;;;;17.91;44.54;97724.50;4992684;28;20243;-94
2023/02/17 18:30:26;;;;;;;4.90;2.87;;;;;;;18.46;44.93;97856.81;4964297;28;20210;-95
2023/02/17 18:32:53;;;;;;;4.17;2.57;;;;;;;18.26;44.80;97807.53;4978666;28;20227;-94
2023/02/17 18:35:20;;;;;;;5.83;2.53;;;;;;;17.50;45.07;97688.66;4960305;28;20184;-94
2023/02/17 18:37:47;;;;;;;3.70;2.50;;;;;;;18.60;44.75;97836.31;4961573;28;20215;-95
2023/02/17 18:40:15;;;;;;;4.37;2.33;;;;;;;18.45;44.83;97847.44;4998953;28;20204;-94
2023/02/17 18:42:46;;;;;;;4.63;2.50;;;;;;;20.15;44.48;98143.31;4962415;28;20208;-95
2023/02/17 18:45:14;;;;;;;3.53;2.50;;;;;;;18.24;44.88;97804.91;4976434;28;20193;-94
2023/02/17 18:47:41;;;;;;;4.70;2.63;;;;;;;18.86;45.04;97907.09;4964730;28;20222;-94
2023/02/17 18:50:09;;;;;;;4.80;2.67;;;;;;;18.42;45.24;97809.16;4980562;28;20202;-94
2023/02/17 18:52:37;;;;;;;5.40;2.57;;;;;;;18.10;44.89;97792.34;4960949;28;20206;-94
2023/02/17 18:55:04;;;;;;;5.33;2.80;;;;;;;18.55;44.62;97847.06;4964280;28;20237;-95
2023/02/17 18:57:31;;;;;;;6.90;2.57;;;;;;;18.79;44.92;97909.28;4961102;28;20218;-94
2023/02/17 18:59:58;;;;;;;4.73;2.40;;;;;;;17.26;45.07;97633.25;4965087;28;20183;-94
2023/02/17 19:02:25;;;;;;;8.00;2.70;;;;;;;18.00;44.68;97773.25;4971342;28;20208;-94
2023/02/17 19:04:52;;;;;;;4.53;2.80;;;;;;;19.61;44.80;98035.47;4963760;28;20207;-94
2023/02/17 19:07:19;;;;;;;3.27;2.50;;;;;;;18.12;45.09;97806.88;4975452;28;20208;-94
2023/02/17 19:09:50;;;;;;;4.07;2.50;;;;;;;19.28;44.97;97977.88;4976581;28;20187;-95
2023/02/17 19:12:17;;;;;;;4.50;2.80;;;;;;;18.32;44.80;97809.50;4956753;28;20219;-92
2023/02/17 19:14:44;;;;;;;3.67;2.47;;;;;;;18.35;45.23;97823.22;4980678;28;20204;-94
2023/02/17 19:17:11;;;;;;;4.33;2.83;;;;;;;18.18;44.95;97816.50;4992534;28;20181;-94
2023/02/17 19:19:38;;;;;;;4.13;2.40;;;;;;;19.58;44.96;98031.91;4970371;28;20184;-93
2023/02/17 19:22:07;;;;;;;5.00;2.53;;;;;;;18.51;45.24;97860.47;4982942;28;20212;-92
2023/02/17 19:25:04;;;;;;;3.30;2.47;;;;;;;19.12;44.86;97951.56;4980033;28;20185;-94
2023/02/17 19:28:11;;;;;;;4.37;2.10;;;;;;;18.13;44.88;97798.47;4982213;28;20218;-94
2023/02/17 19:31:32;;;;;;;5.50;2.37;;;;;;;17.01;44.89;97612.56;4981404;28;20215;-94
2023/02/17 19:34:14;;;;;;;4.23;2.40;;;;;;;18.38;44.97;97859.00;4994733;28;20219;-92
2023/02/17 19:36:56;;;;;;;4.93;2.50;;;;;;;18.54;45.05;97850.44;4980624;28;20191;-94
2023/02/17 19:40:00;;;;;;;2.47;2.27;;;;;;;18.51;44.74;97871.53;4976829;28;20200;-94
2023/02/17 19:42:49;;;;;;;3.90;2.47;;;;;;;18.55;44.98;97847.06;4972550;28;20315;-94
2023/02/17 19:45:38;;;;;;;4.63;2.60;;;;;;;18.55;45.15;97893.75;4963517;28;20194;-93
2023/02/17 19:48:24;;;;;;;2.77;2.50;;;;;;;17.43;44.97;97670.47;4972499;28;20259;-93
2023/02/17 19:51:05;;;;;;;3.60;2.60;;;;;;;20.14;44.83;98134.81;4969432;28;20196;-94
2023/02/17 19:53:48;;;;;;;3.73;2.30;;;;;;;17.64;45.04;97713.06;4987840;28;20248;-93
2023/02/17 19:56:26;;;;;;;5.10;2.87;;;;;;;19.31;44.94;97995.84;4960900;28;20205;-94
2023/02/17 19:58:53;;;;;;;2.50;2.17;;;;;;;17.12;44.71;97642.75;4966574;28;20263;-95
2023/02/17 20:02:04;;;;;;;2.67;2.20;;;;;;;17.48;44.83;97685.19;4990487;28;20183;-94
2023/02/17 20:04:49;;;;;;;2.93;2.27;;;;;;;17.78;44.87;97765.41;4985355;28;20200;-94
2023/02/17 20:07:37;;;;;;;2.30;2.10;;;;;;;18.67;45.02;97911.25;4967277;28;20211;-93
2023/02/17 20:10:18;;;;;;;2.47;2.23;;;;;;;17.74;44.82;97752.50;4969828;28;20215;-93
2023/02/17 20:13:13;;;;;;;3.63;2.53;;;;;;;18.32;44.89;97868.03;4967079;28;20231;-93
2023/02/17 20:16:06;;;;;;;2.40;2.03;;;;;;;18.65;44.80;97921.38;4976125;28;20194;-94
2023/02/17 20:18:43;;;;;;;4.20;2.10;;;;;;;18.53;44.83;97880.09;4979782;28;20191;-94
2023/02/17 20:21:24;;;;;;;2.83;2.20;;;;;;;18.06;44.66;97821.84;4977585;28;20215;-93
2023/02/17 20:24:11;;;;;;;3.87;2.40;;;;;;;18.45;44.88;97894.16;4980688;28;20213;-94
2023/02/17 20:27:12;;;;;;;2.77;2.10;;;;;;;20.17;44.96;98180.00;4976855;28;20206;-94
2023/02/17 20:30:06;;;;;;;3.20;2.47;;;;;;;18.40;45.21;97857.41;4970938;28;20211;-94
2023/02/17 20:33:02;;;;;;;2.77;2.20;;;;;;;17.23;45.15;97676.28;4974716;28;20223;-93
2023/02/17 20:35:47;;;;;;;2.20;2.00;;;;;;;17.41;45.10;97722.91;4972405;28;20188;-95
2023/02/17 20:38:49;;;;;;;2.30;2.10;;;;;;;20.16;45.06;98166.34;4973040;28;20272;-94
2023/02/17 20:41:20;;;;;;;4.40;2.43;;;;;;;18.56;45.09;97912.47;4983706;28;20212;-94
2023/02/17 20:44:27;;;;;;;2.67;2.20;;;;;;;20.17;44.91;98178.34;4894763;29;20253;-94
2023/02/17 20:47:51;;;;;;;2.83;2.10;;;;;;;18.34;45.10;97891.84;4917895;28;20222;-94
2023/02/17 20:50:30;;;;;;;3.07;2.23;;;;;;;17.57;44.86;97726.28;4914763;29;20186;-94
2023/02/17 20:56:22;;;;;;;3.23;2.30;;;;;;;17.61;44.78;97761.19;4908637;28;20218;-94
2023/02/17 21:16:01;;;;;;;2.10;1.90;;;;;;;18.43;45.00;97903.38;5297783;23;20211;-95
2023/02/17 21:18:43;;;;;;;2.77;1.90;;;;;;;19.60;44.93;98096.59;4980713;28;20247;-94
2023/02/17 21:21:15;;;;;;;2.00;1.80;;;;;;;18.51;45.35;97914.78;4996565;28;20187;-93
2023/02/17 21:24:20;;;;;;;2.30;2.10;;;;;;;18.53;44.94;97903.00;4984908;28;20203;-94
2023/02/17 21:26:57;;;;;;;2.27;2.07;;;;;;;20.10;44.98;98173.72;4989028;28;20203;-94
2023/02/17 21:29:49;;;;;;;2.60;2.10;;;;;;;17.98;45.04;97817.22;4978965;28;20215;-92
2023/02/17 21:32:59;;;;;;;3.00;2.40;;;;;;;18.51;44.81;97930.06;4971226;28;20220;-94
2023/02/17 21:35:53;;;;;;;2.47;1.93;;;;;;;17.68;44.93;97793.72;4983465;28;20200;-92
2023/02/17 21:38:56;;;;;;;2.10;2.00;;;;;;;20.17;45.14;98211.50;4972889;28;20191;-94
2023/02/17 21:41:53;;;;;;;2.40;2.20;;;;;;;17.05;45.10;97666.09;4981639;28;20176;-94
2023/02/17 21:45:08;;;;;;;2.50;2.03;;;;;;;20.18;44.98;98204.72;4974495;28;20181;-94
2023/02/17 21:50:51;;;;;;;2.10;2.00;;;;;;;18.44;45.19;97928.00;4968889;28;20196;-93
2023/02/17 21:53:37;;;;;;;2.23;1.83;;;;;;;17.99;45.24;97832.53;4965443;28;20204;-95
2023/02/17 21:56:10;;;;;;;2.30;2.00;;;;;;;17.20;45.18;97702.38;4966655;28;20218;-93
2023/02/17 21:58:48;;;;;;;2.17;1.97;;;;;;;17.45;45.16;97763.78;4962525;28;20247;-96
2023/02/17 22:01:22;;;;;;;4.03;2.20;;;;;;;17.38;45.00;97754.06;4996403;28;20180;-92
2023/02/17 22:03:59;;;;;;;2.40;1.90;;;;;;;18.27;45.03;97911.06;4965206;28;20212;-94
2023/02/17 22:06:43;;;;;;;2.50;1.90;;;;;;;19.85;45.07;98178.50;4986796;28;20227;-95
2023/02/17 22:09:32;;;;;;;4.03;1.80;;;;;;;18.48;45.03;97957.03;4980731;28;20215;-94
2023/02/17 22:12:03;;;;;;;2.40;1.80;;;;;;;18.38;44.90;97940.44;4985941;28;20203;-94
2023/02/17 22:14:33;;;;;;;2.20;2.00;;;;;;;19.48;45.16;98142.78;4957892;28;20192;-92
2023/02/17 22:17:17;;;;;;;3.63;2.07;;;;;;;18.36;44.84;97939.47;4975244;28;20188;-93
2023/02/17 22:19:58;;;;;;;1.73;1.63;;;;;;;17.09;45.37;97697.59;4966772;28;20196;-95
2023/02/17 22:22:59;;;;;;;2.10;1.90;;;;;;;19.72;44.88;98166.84;4964171;28;20284;-94
2023/02/17 22:25:35;;;;;;;2.10;1.87;;;;;;;17.65;44.66;97798.66;4986732;28;20211;-93
2023/02/17 22:28:11;;;;;;;3.37;1.90;;;;;;;18.34;44.78;97953.78;4964260;28;20213;-94
2023/02/17 22:33:51;;;;;;;1.87;1.77;;;;;;;17.66;45.15;97819.88;4969844;28;20224;-93
2023/02/17 22:36:33;;;;;;;2.33;2.10;;;;;;;18.13;44.91;97920.56;4956799;28;20220;-94
2023/02/17 22:39:43;;;;;;;2.77;2.00;;;;;;;17.79;44.96;97861.22;4960373;28;20443;-94
2023/02/17 22:42:35;;;;;;;2.43;2.20;;;;;;;19.57;45.01;98147.44;4986277;28;20203;-93
2023/02/17 22:45:06;;;;;;;2.23;1.73;;;;;;;19.02;45.10;98069.13;4964163;28;20199;-94
2023/02/17 22:47:38;;;;;;;1.87;1.67;;;;;;;17.50;45.16;97782.66;4963197;28;20272;-94
2023/02/17 22:50:28;;;;;;;1.90;1.73;;;;;;;17.53;45.10;97802.28;4982601;28;20208;-93
2023/02/17 22:53:01;;;;;;;1.87;1.67;;;;;;;18.97;44.79;98050.22;4972334;28;20218;-94
2023/02/17 22:56:03;;;;;;;1.80;1.70;;;;;;;17.26;45.25;97758.56;4962983;28;20179;-94
2023/02/17 22:59:02;;;;;;;1.93;1.73;;;;;;;18.29;44.78;97934.88;4979618;28;20300;-94
2023/02/17 23:01:45;;;;;;;2.00;1.80;;;;;;;17.79;45.26;97840.88;4997574;28;20187;-93
2023/02/17 23:04:31;;;;;;;2.00;1.70;;;;;;;18.51;44.98;97967.34;4949920;28;20211;-94
2023/02/17 23:07:13;;;;;;;2.17;1.97;;;;;;;19.62;45.13;98172.34;4971538;28;20210;-95
2023/02/17 23:10:18;;;;;;;;;;;;;;;;;;;;;
2023/02/17 23:12:47;;;;;;;2.63;1.83;;;;;;;18.28;45.45;97935.69;4991514;28;20220;-94
2023/02/17 23:15:19;;;;;;;2.73;2.10;;;;;;;18.43;45.16;97953.38;4948292;28;20256;-94
2023/02/17 23:18:04;;;;;;;2.03;1.73;;;;;;;18.40;45.14;97951.56;4973229;28;20195;-95
2023/02/17 23:20:42;;;;;;;1.93;1.83;;;;;;;19.54;44.98;98150.69;4972366;28;20184;-93
2023/02/17 23:26:29;;;;;;;1.70;1.60;;;;;;;17.23;45.08;97743.16;4987991;28;20184;-94
2023/02/17 23:29:31;;;;;;;2.73;1.90;;;;;;;17.45;44.99;97781.59;4968766;28;20282;-93
2023/02/17 23:32:28;;;;;;;1.60;1.50;;;;;;;18.48;45.09;97957.91;4962808;28;20254;-94
2023/02/17 23:35:05;;;;;;;1.93;1.80;;;;;;;19.61;45.15;98154.41;4974926;28;20199;-94
2023/02/17 23:37:49;;;;;;;2.70;1.80;;;;;;;17.36;45.13;97755.69;4948717;28;20204;-94
2023/02/17 23:40:29;;;;;;;2.17;1.97;;;;;;;17.64;45.35;97802.00;4972545;28;20233;-94
2023/02/17 23:43:30;;;;;;;1.77;1.63;;;;;;;18.05;45.09;97865.91;4952853;28;20340;-94
2023/02/17 23:46:28;;;;;;;1.90;1.80;;;;;;;18.14;45.10;97909.56;4967194;28;20216;-92
2023/02/17 23:49:08;;;;;;;1.60;1.50;;;;;;;17.88;45.07;97879.44;4979361;28;20226;-94
2023/02/17 23:51:37;;;;;;;2.13;1.90;;;;;;;20.01;45.29;98237.06;4985113;28;20188;-94
2023/02/17 23:54:28;;;;;;;1.67;1.53;;;;;;;18.09;45.32;97893.22;4962644;28;20210;-94
2023/02/17 23:57:13;;;;;;;2.10;1.90;;;;;;;17.51;45.16;97806.41;5007880;28;20204;-94
